sensor_id;sensor_type;location;lat;lon;timestamp;P1;P2;P0
77411;PMS7003;66484;49.968;19.140;2023-05-20T00:01:48;43.67;35.33;21.00
77411;PMS7003;66484;49.968;19.140;2023-05-20T00:04:15;39.67;35.00;23.33
77411;PMS7003;66484;49.968;19.140;2023-05-20T00:06:43;48.00;38.00;22.33
77411;PMS7003;66484;49.968;19.140;2023-05-20T00:09:11;40.33;34.00;21.33
77411;PMS7003;66484;49.968;19.140;2023-05-20T00:11:38;39.67;33.33;21.33
77411;PMS7003;66484;49.968;19.140;2023-05-20T00:14:05;37.67;33.33;20.67
77411;PMS7003;66484;49.968;19.140;2023-05-20T00:16:33;43.50;37.50;21.75
77411;PMS7003;66484;49.968;19.140;2023-05-20T00:19:01;40.00;35.67;22.00
77411;PMS7003;66484;49.968;19.140;2023-05-20T00:21:28;48.00;40.67;24.00
77411;PMS7003;66484;49.968;19.140;2023-05-20T00:23:56;38.33;35.33;20.00
77411;PMS7003;66484;49.968;19.140;2023-05-20T00:26:23;43.67;33.67;19.67
77411;PMS7003;66484;49.968;19.140;2023-05-20T00:28:52;50.00;38.25;22.00
77411;PMS7003;66484;49.968;19.140;2023-05-20T00:31:19;44.33;37.00;22.33
77411;PMS7003;66484;49.968;19.140;2023-05-20T00:33:47;45.67;35.33;22.33
77411;PMS7003;66484;49.968;19.140;2023-05-20T00:36:15;45.33;35.33;21.00
77411;PMS7003;66484;49.968;19.140;2023-05-20T00:38:42;47.33;34.00;18.67
77411;PMS7003;66484;49.968;19.140;2023-05-20T00:41:09;48.00;38.67;22.67
77411;PMS7003;66484;49.968;19.140;2023-05-20T00:43:36;40.33;34.67;21.00
77411;PMS7003;66484;49.968;19.140;2023-05-20T00:46:04;47.00;37.33;24.00
77411;PMS7003;66484;49.968;19.140;2023-05-20T00:48:41;49.00;37.67;21.00
77411;PMS7003;66484;49.968;19.140;2023-05-20T00:51:10;38.67;36.33;22.00
77411;PMS7003;66484;49.968;19.140;2023-05-20T00:53:39;41.33;36.00;22.00
77411;PMS7003;66484;49.968;19.140;2023-05-20T00:56:07;32.67;30.67;16.00
77411;PMS7003;66484;49.968;19.140;2023-05-20T00:58:35;44.33;38.00;22.00
77411;PMS7003;66484;49.968;19.140;2023-05-20T01:01:04;36.67;33.00;21.33
77411;PMS7003;66484;49.968;19.140;2023-05-20T01:03:32;40.67;32.33;20.00
77411;PMS7003;66484;49.968;19.140;2023-05-20T01:06:01;32.33;31.33;19.67
77411;PMS7003;66484;49.968;19.140;2023-05-20T01:08:28;45.67;33.00;14.00
77411;PMS7003;66484;49.968;19.140;2023-05-20T01:10:57;40.33;35.00;21.67
77411;PMS7003;66484;49.968;19.140;2023-05-20T01:14:16;37.67;32.67;18.67
77411;PMS7003;66484;49.968;19.140;2023-05-20T01:16:21;41.67;33.33;22.00
77411;PMS7003;66484;49.968;19.140;2023-05-20T01:18:51;40.00;35.00;20.00
77411;PMS7003;66484;49.968;19.140;2023-05-20T01:21:20;36.33;32.67;18.33
77411;PMS7003;66484;49.968;19.140;2023-05-20T01:23:48;32.33;27.00;18.67
77411;PMS7003;66484;49.968;19.140;2023-05-20T01:26:15;33.67;30.67;20.67
77411;PMS7003;66484;49.968;19.140;2023-05-20T01:28:44;36.00;34.00;20.00
77411;PMS7003;66484;49.968;19.140;2023-05-20T01:31:17;29.33;28.67;17.00
77411;PMS7003;66484;49.968;19.140;2023-05-20T01:33:47;30.33;28.33;14.67
77411;PMS7003;66484;49.968;19.140;2023-05-20T01:36:17;47.33;33.67;21.00
77411;PMS7003;66484;49.968;19.140;2023-05-20T01:38:46;35.67;32.67;20.00
77411;PMS7003;66484;49.968;19.140;2023-05-20T01:41:14;35.33;32.33;22.00
77411;PMS7003;66484;49.968;19.140;2023-05-20T01:43:43;27.33;23.00;11.33
77411;PMS7003;66484;49.968;19.140;2023-05-20T01:46:10;30.67;30.67;18.00
77411;PMS7003;66484;49.968;19.140;2023-05-20T01:48:37;27.67;27.33;17.33
77411;PMS7003;66484;49.968;19.140;2023-05-20T01:51:04;42.67;32.00;18.67
77411;PMS7003;66484;49.968;19.140;2023-05-20T01:53:32;39.00;31.33;14.67
77411;PMS7003;66484;49.968;19.140;2023-05-20T01:55:59;36.00;31.00;17.00
77411;PMS7003;66484;49.968;19.140;2023-05-20T01:58:26;39.00;32.33;16.00
77411;PMS7003;66484;49.968;19.140;2023-05-20T02:00:53;24.00;22.00;13.00
77411;PMS7003;66484;49.968;19.140;2023-05-20T02:03:22;31.33;28.33;14.33
77411;PMS7003;66484;49.968;19.140;2023-05-20T02:05:49;36.00;30.33;19.33
77411;PMS7003;66484;49.968;19.140;2023-05-20T02:08:16;38.00;33.67;18.67
77411;PMS7003;66484;49.968;19.140;2023-05-20T02:10:46;39.33;35.67;21.00
77411;PMS7003;66484;49.968;19.140;2023-05-20T02:13:14;28.00;25.00;15.00
77411;PMS7003;66484;49.968;19.140;2023-05-20T02:15:41;39.33;25.00;15.67
77411;PMS7003;66484;49.968;19.140;2023-05-20T02:18:09;41.00;29.33;18.33
77411;PMS7003;66484;49.968;19.140;2023-05-20T02:20:38;31.00;27.00;17.33
77411;PMS7003;66484;49.968;19.140;2023-05-20T02:23:05;33.67;30.00;18.33
77411;PMS7003;66484;49.968;19.140;2023-05-20T02:25:33;42.75;34.25;22.25
77411;PMS7003;66484;49.968;19.140;2023-05-20T02:28:01;37.00;29.67;19.00
77411;PMS7003;66484;49.968;19.140;2023-05-20T02:30:31;29.67;25.67;15.33
77411;PMS7003;66484;49.968;19.140;2023-05-20T02:32:58;32.33;26.33;16.33
77411;PMS7003;66484;49.968;19.140;2023-05-20T02:35:26;29.33;22.00;15.00
77411;PMS7003;66484;49.968;19.140;2023-05-20T02:37:53;26.00;20.00;13.00
77411;PMS7003;66484;49.968;19.140;2023-05-20T02:40:20;33.33;31.00;19.00
77411;PMS7003;66484;49.968;19.140;2023-05-20T02:42:48;37.67;31.00;18.00
77411;PMS7003;66484;49.968;19.140;2023-05-20T02:45:16;26.00;24.33;15.33
77411;PMS7003;66484;49.968;19.140;2023-05-20T02:47:43;30.00;25.67;15.67
77411;PMS7003;66484;49.968;19.140;2023-05-20T02:50:10;20.67;19.67;12.33
77411;PMS7003;66484;49.968;19.140;2023-05-20T02:52:38;23.67;23.67;16.00
77411;PMS7003;66484;49.968;19.140;2023-05-20T02:55:08;27.00;23.33;15.33
77411;PMS7003;66484;49.968;19.140;2023-05-20T02:57:36;20.33;20.33;13.33
77411;PMS7003;66484;49.968;19.140;2023-05-20T03:00:08;23.33;23.00;13.00
77411;PMS7003;66484;49.968;19.140;2023-05-20T03:02:42;21.67;19.67;13.00
77411;PMS7003;66484;49.968;19.140;2023-05-20T03:05:10;22.67;18.00;12.00
77411;PMS7003;66484;49.968;19.140;2023-05-20T03:07:38;21.00;19.67;12.00
77411;PMS7003;66484;49.968;19.140;2023-05-20T03:10:06;20.00;19.00;12.00
77411;PMS7003;66484;49.968;19.140;2023-05-20T03:12:34;17.00;13.33;9.33
77411;PMS7003;66484;49.968;19.140;2023-05-20T03:15:01;22.00;20.00;13.00
77411;PMS7003;66484;49.968;19.140;2023-05-20T03:17:28;23.00;20.00;14.33
77411;PMS7003;66484;49.968;19.140;2023-05-20T03:19:55;19.67;17.00;12.33
77411;PMS7003;66484;49.968;19.140;2023-05-20T03:22:23;18.00;17.33;13.00
77411;PMS7003;66484;49.968;19.140;2023-05-20T03:24:50;22.33;18.33;12.33
77411;PMS7003;66484;49.968;19.140;2023-05-20T03:27:18;14.67;14.67;11.33
77411;PMS7003;66484;49.968;19.140;2023-05-20T03:29:46;22.00;19.33;13.33
77411;PMS7003;66484;49.968;19.140;2023-05-20T03:32:15;20.33;20.33;13.00
77411;PMS7003;66484;49.968;19.140;2023-05-20T03:34:42;20.00;18.00;13.00
77411;PMS7003;66484;49.968;19.140;2023-05-20T03:37:09;20.00;18.00;12.00
77411;PMS7003;66484;49.968;19.140;2023-05-20T03:39:37;21.33;19.67;12.00
77411;PMS7003;66484;49.968;19.140;2023-05-20T03:42:04;20.67;19.67;12.00
77411;PMS7003;66484;49.968;19.140;2023-05-20T03:44:32;23.33;22.33;13.00
77411;PMS7003;66484;49.968;19.140;2023-05-20T03:46:59;28.67;23.33;15.00
77411;PMS7003;66484;49.968;19.140;2023-05-20T03:49:31;23.33;23.33;13.33
77411;PMS7003;66484;49.968;19.140;2023-05-20T03:51:59;23.33;23.33;15.00
77411;PMS7003;66484;49.968;19.140;2023-05-20T03:54:26;17.00;17.00;12.00
77411;PMS7003;66484;49.968;19.140;2023-05-20T03:56:56;20.33;17.00;12.67
77411;PMS7003;66484;49.968;19.140;2023-05-20T03:59:22;20.00;17.67;11.00
77411;PMS7003;66484;49.968;19.140;2023-05-20T04:01:50;24.67;20.33;14.00
77411;PMS7003;66484;49.968;19.140;2023-05-20T04:04:17;17.67;16.33;11.00
77411;PMS7003;66484;49.968;19.140;2023-05-20T04:06:45;23.33;19.67;13.00
77411;PMS7003;66484;49.968;19.140;2023-05-20T04:09:12;20.67;18.33;12.33
77411;PMS7003;66484;49.968;19.140;2023-05-20T04:11:39;21.67;19.33;10.33
77411;PMS7003;66484;49.968;19.140;2023-05-20T04:14:07;19.00;15.00;12.00
77411;PMS7003;66484;49.968;19.140;2023-05-20T04:16:36;24.67;21.67;14.67
77411;PMS7003;66484;49.968;19.140;2023-05-20T04:19:04;14.67;13.67;8.33
77411;PMS7003;66484;49.968;19.140;2023-05-20T04:21:31;18.00;15.67;12.00
77411;PMS7003;66484;49.968;19.140;2023-05-20T04:23:59;14.67;14.67;10.00
77411;PMS7003;66484;49.968;19.140;2023-05-20T04:26:27;13.67;13.00;10.00
77411;PMS7003;66484;49.968;19.140;2023-05-20T04:28:54;14.33;13.33;9.67
77411;PMS7003;66484;49.968;19.140;2023-05-20T04:31:25;12.67;11.33;10.00
77411;PMS7003;66484;49.968;19.140;2023-05-20T04:33:52;15.00;15.00;11.00
77411;PMS7003;66484;49.968;19.140;2023-05-20T04:36:20;16.00;15.67;10.00
77411;PMS7003;66484;49.968;19.140;2023-05-20T04:38:47;19.00;14.00;11.00
77411;PMS7003;66484;49.968;19.140;2023-05-20T04:41:15;12.00;12.00;9.00
77411;PMS7003;66484;49.968;19.140;2023-05-20T04:43:42;13.00;13.00;11.00
77411;PMS7003;66484;49.968;19.140;2023-05-20T04:46:10;13.00;13.00;9.67
77411;PMS7003;66484;49.968;19.140;2023-05-20T04:48:37;17.67;16.67;10.33
77411;PMS7003;66484;49.968;19.140;2023-05-20T04:51:05;16.00;15.00;11.00
77411;PMS7003;66484;49.968;19.140;2023-05-20T04:53:32;11.67;11.00;6.00
77411;PMS7003;66484;49.968;19.140;2023-05-20T04:56:01;13.33;13.33;9.67
77411;PMS7003;66484;49.968;19.140;2023-05-20T04:58:29;16.67;14.33;11.00
77411;PMS7003;66484;49.968;19.140;2023-05-20T05:00:57;13.67;13.67;11.00
77411;PMS7003;66484;49.968;19.140;2023-05-20T05:03:24;20.67;16.00;11.00
77411;PMS7003;66484;49.968;19.140;2023-05-20T05:05:58;15.67;14.67;9.67
77411;PMS7003;66484;49.968;19.140;2023-05-20T05:08:25;13.00;11.67;8.67
77411;PMS7003;66484;49.968;19.140;2023-05-20T05:10:53;10.67;9.67;6.33
77411;PMS7003;66484;49.968;19.140;2023-05-20T05:13:20;21.00;15.33;10.33
77411;PMS7003;66484;49.968;19.140;2023-05-20T05:15:56;15.33;13.00;9.00
77411;PMS7003;66484;49.968;19.140;2023-05-20T05:18:24;14.33;13.00;9.00
77411;PMS7003;66484;49.968;19.140;2023-05-20T05:20:58;13.33;11.33;9.33
77411;PMS7003;66484;49.968;19.140;2023-05-20T05:23:27;12.33;12.33;10.00
77411;PMS7003;66484;49.968;19.140;2023-05-20T05:25:55;12.00;12.00;10.00
77411;PMS7003;66484;49.968;19.140;2023-05-20T05:28:22;21.33;17.67;12.33
77411;PMS7003;66484;49.968;19.140;2023-05-20T05:30:50;17.33;14.00;9.00
77411;PMS7003;66484;49.968;19.140;2023-05-20T05:33:20;14.33;14.33;11.33
77411;PMS7003;66484;49.968;19.140;2023-05-20T05:35:47;12.67;10.67;6.67
77411;PMS7003;66484;49.968;19.140;2023-05-20T05:38:14;14.33;13.33;8.67
77411;PMS7003;66484;49.968;19.140;2023-05-20T05:40:42;13.67;13.67;8.00
77411;PMS7003;66484;49.968;19.140;2023-05-20T05:43:09;14.33;13.00;7.33
77411;PMS7003;66484;49.968;19.140;2023-05-20T05:45:37;10.33;10.33;8.33
77411;PMS7003;66484;49.968;19.140;2023-05-20T05:48:05;13.33;13.00;8.67
77411;PMS7003;66484;49.968;19.140;2023-05-20T05:50:32;13.67;11.33;7.67
77411;PMS7003;66484;49.968;19.140;2023-05-20T05:52:59;13.00;13.00;9.00
77411;PMS7003;66484;49.968;19.140;2023-05-20T05:55:27;14.33;11.00;6.00
77411;PMS7003;66484;49.968;19.140;2023-05-20T05:57:54;17.00;16.33;12.00
77411;PMS7003;66484;49.968;19.140;2023-05-20T06:00:22;19.00;14.67;10.00
77411;PMS7003;66484;49.968;19.140;2023-05-20T06:02:49;15.00;15.00;11.00
77411;PMS7003;66484;49.968;19.140;2023-05-20T06:05:17;13.33;12.33;11.33
77411;PMS7003;66484;49.968;19.140;2023-05-20T06:07:44;12.67;12.67;8.33
77411;PMS7003;66484;49.968;19.140;2023-05-20T06:10:12;13.33;13.33;11.00
77411;PMS7003;66484;49.968;19.140;2023-05-20T06:12:39;14.67;13.33;8.00
77411;PMS7003;66484;49.968;19.140;2023-05-20T06:15:07;18.33;14.67;12.00
77411;PMS7003;66484;49.968;19.140;2023-05-20T06:17:34;15.67;14.67;10.33
77411;PMS7003;66484;49.968;19.140;2023-05-20T06:20:02;15.00;15.00;10.00
77411;PMS7003;66484;49.968;19.140;2023-05-20T06:22:29;17.00;17.00;13.00
77411;PMS7003;66484;49.968;19.140;2023-05-20T06:24:57;14.67;13.33;9.67
77411;PMS7003;66484;49.968;19.140;2023-05-20T06:27:28;15.00;13.67;9.33
77411;PMS7003;66484;49.968;19.140;2023-05-20T06:29:55;16.67;16.00;10.33
77411;PMS7003;66484;49.968;19.140;2023-05-20T06:32:23;15.33;13.00;10.00
77411;PMS7003;66484;49.968;19.140;2023-05-20T06:34:50;18.67;16.00;10.00
77411;PMS7003;66484;49.968;19.140;2023-05-20T06:37:18;13.67;13.67;9.00
77411;PMS7003;66484;49.968;19.140;2023-05-20T06:39:46;16.67;14.00;8.67
77411;PMS7003;66484;49.968;19.140;2023-05-20T06:42:17;13.00;12.67;8.00
77411;PMS7003;66484;49.968;19.140;2023-05-20T06:44:44;16.00;13.33;9.33
77411;PMS7003;66484;49.968;19.140;2023-05-20T06:47:13;15.00;14.67;11.00
77411;PMS7003;66484;49.968;19.140;2023-05-20T06:49:42;19.00;10.33;7.33
77411;PMS7003;66484;49.968;19.140;2023-05-20T06:52:13;19.33;14.00;9.33
77411;PMS7003;66484;49.968;19.140;2023-05-20T06:54:41;17.33;13.00;7.33
77411;PMS7003;66484;49.968;19.140;2023-05-20T06:57:10;22.00;18.67;13.33
77411;PMS7003;66484;49.968;19.140;2023-05-20T06:59:38;18.00;15.67;11.00
77411;PMS7003;66484;49.968;19.140;2023-05-20T07:02:05;19.67;15.33;12.67
77411;PMS7003;66484;49.968;19.140;2023-05-20T07:04:33;18.67;17.00;9.67
77411;PMS7003;66484;49.968;19.140;2023-05-20T07:07:01;19.33;18.33;13.00
77411;PMS7003;66484;49.968;19.140;2023-05-20T07:09:29;16.00;15.00;10.33
77411;PMS7003;66484;49.968;19.140;2023-05-20T07:11:56;16.67;15.00;11.00
77411;PMS7003;66484;49.968;19.140;2023-05-20T07:14:25;11.33;11.33;8.33
77411;PMS7003;66484;49.968;19.140;2023-05-20T07:16:52;16.00;13.00;9.33
77411;PMS7003;66484;49.968;19.140;2023-05-20T07:19:20;18.67;15.00;11.00
77411;PMS7003;66484;49.968;19.140;2023-05-20T07:21:48;14.50;13.00;9.00
77411;PMS7003;66484;49.968;19.140;2023-05-20T07:24:16;16.50;15.75;10.00
77411;PMS7003;66484;49.968;19.140;2023-05-20T07:26:43;10.33;9.33;6.33
77411;PMS7003;66484;49.968;19.140;2023-05-20T07:29:11;12.00;10.50;9.00
77411;PMS7003;66484;49.968;19.140;2023-05-20T07:31:39;14.50;13.00;8.75
77411;PMS7003;66484;49.968;19.140;2023-05-20T07:34:06;15.00;12.50;10.00
77411;PMS7003;66484;49.968;19.140;2023-05-20T07:36:34;8.25;8.25;6.00
77411;PMS7003;66484;49.968;19.140;2023-05-20T07:39:03;18.00;15.75;10.75
77411;PMS7003;66484;49.968;19.140;2023-05-20T07:41:36;15.00;12.50;10.25
77411;PMS7003;66484;49.968;19.140;2023-05-20T07:44:04;18.00;16.00;10.50
77411;PMS7003;66484;49.968;19.140;2023-05-20T07:46:34;14.50;13.25;9.00
77411;PMS7003;66484;49.968;19.140;2023-05-20T07:49:02;14.00;12.25;9.50
77411;PMS7003;66484;49.968;19.140;2023-05-20T07:51:29;16.00;14.50;10.75
77411;PMS7003;66484;49.968;19.140;2023-05-20T07:53:58;11.75;11.75;9.50
77411;PMS7003;66484;49.968;19.140;2023-05-20T07:56:26;12.50;10.50;8.50
77411;PMS7003;66484;49.968;19.140;2023-05-20T07:58:55;13.00;13.00;9.75
77411;PMS7003;66484;49.968;19.140;2023-05-20T08:01:26;16.00;16.00;11.50
77411;PMS7003;66484;49.968;19.140;2023-05-20T08:03:55;15.25;13.25;9.00
77411;PMS7003;66484;49.968;19.140;2023-05-20T08:06:23;14.25;13.75;9.75
77411;PMS7003;66484;49.968;19.140;2023-05-20T08:08:55;16.25;14.50;12.00
77411;PMS7003;66484;49.968;19.140;2023-05-20T08:11:23;15.25;14.00;10.00
77411;PMS7003;66484;49.968;19.140;2023-05-20T08:13:50;17.50;15.50;11.00
77411;PMS7003;66484;49.968;19.140;2023-05-20T08:16:19;21.75;18.50;11.00
77411;PMS7003;66484;49.968;19.140;2023-05-20T08:18:48;20.75;17.75;11.50
77411;PMS7003;66484;49.968;19.140;2023-05-20T08:21:15;14.00;12.75;9.75
77411;PMS7003;66484;49.968;19.140;2023-05-20T08:23:43;17.25;16.25;10.00
77411;PMS7003;66484;49.968;19.140;2023-05-20T08:26:10;13.00;13.00;10.75
77411;PMS7003;66484;49.968;19.140;2023-05-20T08:28:38;19.00;18.00;11.00
77411;PMS7003;66484;49.968;19.140;2023-05-20T08:31:05;23.75;21.75;14.25
77411;PMS7003;66484;49.968;19.140;2023-05-20T08:33:33;18.75;16.00;9.00
77411;PMS7003;66484;49.968;19.140;2023-05-20T08:36:01;21.50;20.00;14.75
77411;PMS7003;66484;49.968;19.140;2023-05-20T08:38:29;18.75;17.75;12.00
77411;PMS7003;66484;49.968;19.140;2023-05-20T08:40:56;18.25;15.75;12.25
77411;PMS7003;66484;49.968;19.140;2023-05-20T08:43:24;19.00;18.00;12.50
77411;PMS7003;66484;49.968;19.140;2023-05-20T08:45:52;18.50;17.50;12.50
77411;PMS7003;66484;49.968;19.140;2023-05-20T08:48:25;21.75;20.00;13.00
77411;PMS7003;66484;49.968;19.140;2023-05-20T08:50:58;24.75;21.25;13.75
77411;PMS7003;66484;49.968;19.140;2023-05-20T08:53:27;23.00;20.00;13.25
77411;PMS7003;66484;49.968;19.140;2023-05-20T08:55:55;21.25;18.00;11.25
77411;PMS7003;66484;49.968;19.140;2023-05-20T08:58:29;14.50;14.50;11.25
77411;PMS7003;66484;49.968;19.140;2023-05-20T09:00:57;17.00;16.50;10.25
77411;PMS7003;66484;49.968;19.140;2023-05-20T09:03:25;23.50;22.00;12.75
77411;PMS7003;66484;49.968;19.140;2023-05-20T09:05:52;25.50;19.25;13.00
77411;PMS7003;66484;49.968;19.140;2023-05-20T09:08:23;22.50;20.00;13.25
77411;PMS7003;66484;49.968;19.140;2023-05-20T09:10:52;20.00;18.25;11.75
77411;PMS7003;66484;49.968;19.140;2023-05-20T09:13:22;18.00;18.00;13.75
77411;PMS7003;66484;49.968;19.140;2023-05-20T09:15:50;22.25;22.25;15.00
77411;PMS7003;66484;49.968;19.140;2023-05-20T09:18:17;26.00;24.25;16.50
77411;PMS7003;66484;49.968;19.140;2023-05-20T09:20:46;21.75;21.75;15.00
77411;PMS7003;66484;49.968;19.140;2023-05-20T09:23:17;27.25;26.00;16.50
77411;PMS7003;66484;49.968;19.140;2023-05-20T09:25:47;22.75;22.75;15.75
77411;PMS7003;66484;49.968;19.140;2023-05-20T09:28:17;19.00;14.75;9.25
77411;PMS7003;66484;49.968;19.140;2023-05-20T09:30:47;18.75;18.75;13.00
77411;PMS7003;66484;49.968;19.140;2023-05-20T09:33:15;21.25;20.50;15.00
77411;PMS7003;66484;49.968;19.140;2023-05-20T09:35:43;24.75;22.75;15.50
77411;PMS7003;66484;49.968;19.140;2023-05-20T09:38:12;24.75;22.25;15.75
77411;PMS7003;66484;49.968;19.140;2023-05-20T09:40:40;26.00;22.75;13.75
77411;PMS7003;66484;49.968;19.140;2023-05-20T09:43:09;22.25;22.25;14.25
77411;PMS7003;66484;49.968;19.140;2023-05-20T09:45:37;25.50;19.75;12.25
77411;PMS7003;66484;49.968;19.140;2023-05-20T09:48:04;24.00;21.00;13.25
77411;PMS7003;66484;49.968;19.140;2023-05-20T09:50:34;24.75;22.50;15.00
77411;PMS7003;66484;49.968;19.140;2023-05-20T09:53:03;28.00;25.75;16.25
77411;PMS7003;66484;49.968;19.140;2023-05-20T09:55:30;26.00;25.00;15.50
77411;PMS7003;66484;49.968;19.140;2023-05-20T09:58:00;32.50;28.50;18.00
77411;PMS7003;66484;49.968;19.140;2023-05-20T10:00:29;25.75;24.50;16.50
77411;PMS7003;66484;49.968;19.140;2023-05-20T10:02:57;29.50;26.25;15.00
77411;PMS7003;66484;49.968;19.140;2023-05-20T10:05:31;19.25;19.00;13.25
77411;PMS7003;66484;49.968;19.140;2023-05-20T10:08:12;26.75;23.50;16.50
77411;PMS7003;66484;49.968;19.140;2023-05-20T10:13:58;23.00;19.50;14.25
77411;PMS7003;66484;49.968;19.140;2023-05-20T10:19:36;27.75;25.25;17.50
77411;PMS7003;66484;49.968;19.140;2023-05-20T10:22:04;28.75;26.25;19.00
77411;PMS7003;66484;49.968;19.140;2023-05-20T10:24:37;23.00;23.00;16.00
77411;PMS7003;66484;49.968;19.140;2023-05-20T10:27:08;22.75;21.50;14.75
77411;PMS7003;66484;49.968;19.140;2023-05-20T10:29:44;25.50;22.75;15.75
77411;PMS7003;66484;49.968;19.140;2023-05-20T10:32:28;24.75;24.75;16.50
77411;PMS7003;66484;49.968;19.140;2023-05-20T10:35:04;29.25;26.00;19.00
77411;PMS7003;66484;49.968;19.140;2023-05-20T10:37:40;30.75;24.50;15.50
77411;PMS7003;66484;49.968;19.140;2023-05-20T10:40:09;25.00;23.50;16.75
77411;PMS7003;66484;49.968;19.140;2023-05-20T10:42:38;30.25;24.50;16.75
77411;PMS7003;66484;49.968;19.140;2023-05-20T10:45:06;24.50;24.00;15.75
77411;PMS7003;66484;49.968;19.140;2023-05-20T10:47:34;24.25;18.75;12.75
77411;PMS7003;66484;49.968;19.140;2023-05-20T10:50:03;31.50;29.75;19.75
77411;PMS7003;66484;49.968;19.140;2023-05-20T10:52:32;27.75;24.75;17.00
77411;PMS7003;66484;49.968;19.140;2023-05-20T10:55:00;26.00;24.50;19.00
77411;PMS7003;66484;49.968;19.140;2023-05-20T10:57:29;35.25;32.75;20.50
77411;PMS7003;66484;49.968;19.140;2023-05-20T10:59:58;38.50;30.75;19.00
77411;PMS7003;66484;49.968;19.140;2023-05-20T11:02:26;41.25;34.25;23.00
77411;PMS7003;66484;49.968;19.140;2023-05-20T11:04:55;39.50;31.25;20.00
77411;PMS7003;66484;49.968;19.140;2023-05-20T11:07:26;39.25;34.75;20.25
77411;PMS7003;66484;49.968;19.140;2023-05-20T11:09:55;40.50;30.75;20.00
77411;PMS7003;66484;49.968;19.140;2023-05-20T11:12:24;31.50;30.50;20.25
77411;PMS7003;66484;49.968;19.140;2023-05-20T11:14:52;30.25;26.50;16.25
77411;PMS7003;66484;49.968;19.140;2023-05-20T11:17:20;32.00;30.00;19.00
77411;PMS7003;66484;49.968;19.140;2023-05-20T11:19:47;42.75;35.00;22.00
77411;PMS7003;66484;49.968;19.140;2023-05-20T11:22:15;37.00;31.25;22.50
77411;PMS7003;66484;49.968;19.140;2023-05-20T11:24:42;30.50;25.75;14.75
77411;PMS7003;66484;49.968;19.140;2023-05-20T11:27:12;26.25;26.25;15.75
77411;PMS7003;66484;49.968;19.140;2023-05-20T11:29:40;31.50;31.00;20.50
77411;PMS7003;66484;49.968;19.140;2023-05-20T11:32:08;33.00;31.00;20.00
77411;PMS7003;66484;49.968;19.140;2023-05-20T11:34:36;40.25;33.75;22.00
77411;PMS7003;66484;49.968;19.140;2023-05-20T11:37:08;39.50;34.50;21.25
77411;PMS7003;66484;49.968;19.140;2023-05-20T11:39:38;33.25;29.00;19.00
77411;PMS7003;66484;49.968;19.140;2023-05-20T11:42:05;40.75;37.50;22.75
77411;PMS7003;66484;49.968;19.140;2023-05-20T11:44:33;35.50;31.50;20.75
77411;PMS7003;66484;49.968;19.140;2023-05-20T11:47:02;35.50;30.50;20.00
77411;PMS7003;66484;49.968;19.140;2023-05-20T11:49:30;43.00;32.75;22.50
77411;PMS7003;66484;49.968;19.140;2023-05-20T11:52:07;34.50;32.00;19.75
77411;PMS7003;66484;49.968;19.140;2023-05-20T11:54:36;31.50;29.50;17.00
77411;PMS7003;66484;49.968;19.140;2023-05-20T11:57:03;42.50;33.25;22.75
77411;PMS7003;66484;49.968;19.140;2023-05-20T11:59:33;38.75;33.00;22.00
77411;PMS7003;66484;49.968;19.140;2023-05-20T12:02:01;40.00;34.25;22.50
77411;PMS7003;66484;49.968;19.140;2023-05-20T12:04:28;48.50;37.75;23.00
77411;PMS7003;66484;49.968;19.140;2023-05-20T12:06:55;45.50;35.50;22.00
77411;PMS7003;66484;49.968;19.140;2023-05-20T12:09:23;37.75;32.25;22.00
77411;PMS7003;66484;49.968;19.140;2023-05-20T12:11:50;36.00;33.50;25.00
77411;PMS7003;66484;49.968;19.140;2023-05-20T12:14:18;36.75;31.50;19.00
77411;PMS7003;66484;49.968;19.140;2023-05-20T12:16:45;39.00;35.25;22.50
77411;PMS7003;66484;49.968;19.140;2023-05-20T12:19:12;38.50;32.25;20.25
77411;PMS7003;66484;49.968;19.140;2023-05-20T12:21:40;40.50;35.25;24.00
77411;PMS7003;66484;49.968;19.140;2023-05-20T12:24:07;42.75;34.75;24.00
77411;PMS7003;66484;49.968;19.140;2023-05-20T12:26:35;46.00;38.75;24.00
77411;PMS7003;66484;49.968;19.140;2023-05-20T12:29:03;45.25;36.00;23.50
77411;PMS7003;66484;49.968;19.140;2023-05-20T12:31:31;41.50;36.00;23.00
77411;PMS7003;66484;49.968;19.140;2023-05-20T12:34:01;47.75;39.25;24.75
77411;PMS7003;66484;49.968;19.140;2023-05-20T12:36:28;48.00;40.50;26.50
77411;PMS7003;66484;49.968;19.140;2023-05-20T12:38:56;44.75;36.75;22.00
77411;PMS7003;66484;49.968;19.140;2023-05-20T12:41:24;42.50;35.25;21.75
77411;PMS7003;66484;49.968;19.140;2023-05-20T12:43:52;45.25;36.25;23.75
77411;PMS7003;66484;49.968;19.140;2023-05-20T12:46:20;37.75;32.75;23.00
77411;PMS7003;66484;49.968;19.140;2023-05-20T12:48:48;40.00;33.75;21.75
77411;PMS7003;66484;49.968;19.140;2023-05-20T12:51:16;43.25;35.25;22.00
77411;PMS7003;66484;49.968;19.140;2023-05-20T12:53:45;43.75;37.00;24.25
77411;PMS7003;66484;49.968;19.140;2023-05-20T12:56:12;47.00;37.25;24.25
77411;PMS7003;66484;49.968;19.140;2023-05-20T12:58:41;40.75;35.75;20.50
77411;PMS7003;66484;49.968;19.140;2023-05-20T13:01:10;47.50;36.50;22.75
77411;PMS7003;66484;49.968;19.140;2023-05-20T13:03:37;40.50;35.50;23.50
77411;PMS7003;66484;49.968;19.140;2023-05-20T13:06:05;44.50;37.00;20.00
77411;PMS7003;66484;49.968;19.140;2023-05-20T13:08:32;45.00;37.00;23.25
77411;PMS7003;66484;49.968;19.140;2023-05-20T13:11:00;43.25;37.25;23.25
77411;PMS7003;66484;49.968;19.140;2023-05-20T13:13:28;41.50;35.50;23.25
77411;PMS7003;66484;49.968;19.140;2023-05-20T13:15:56;37.00;32.25;21.25
77411;PMS7003;66484;49.968;19.140;2023-05-20T13:18:24;44.25;36.50;20.50
77411;PMS7003;66484;49.968;19.140;2023-05-20T13:20:52;36.25;32.00;20.00
77411;PMS7003;66484;49.968;19.140;2023-05-20T13:23:20;44.25;36.00;21.25
77411;PMS7003;66484;49.968;19.140;2023-05-20T13:25:48;47.75;38.25;24.00
77411;PMS7003;66484;49.968;19.140;2023-05-20T13:28:16;33.25;31.00;19.50
77411;PMS7003;66484;49.968;19.140;2023-05-20T13:30:46;47.50;35.00;23.00
77411;PMS7003;66484;49.968;19.140;2023-05-20T13:33:14;38.50;33.50;22.00
77411;PMS7003;66484;49.968;19.140;2023-05-20T13:35:42;28.75;28.50;17.75
77411;PMS7003;66484;49.968;19.140;2023-05-20T13:38:10;42.25;34.25;22.25
77411;PMS7003;66484;49.968;19.140;2023-05-20T13:40:37;28.00;26.25;16.75
77411;PMS7003;66484;49.968;19.140;2023-05-20T13:43:05;35.50;32.00;20.75
77411;PMS7003;66484;49.968;19.140;2023-05-20T13:45:32;33.25;30.50;20.25
77411;PMS7003;66484;49.968;19.140;2023-05-20T13:48:00;42.00;35.00;21.00
77411;PMS7003;66484;49.968;19.140;2023-05-20T13:50:28;46.50;38.75;23.00